createdAt,value
2023-03-16T00:01:11.746Z,31.95
2023-03-16T00:03:39.089Z,30.45
2023-03-16T00:06:06.358Z,31.63
2023-03-16T00:08:33.524Z,29.30
2023-03-16T00:11:02.719Z,29.83
2023-03-16T00:13:30.431Z,30.95
2023-03-16T00:15:59.373Z,26.73
2023-03-16T00:18:27.409Z,29.77
2023-03-16T00:20:55.629Z,29.40
2023-03-16T00:23:27.219Z,28.85
2023-03-16T00:26:00.449Z,28.05
2023-03-16T00:28:28.515Z,26.05
2023-03-16T00:30:59.273Z,24.92
2023-03-16T00:33:26.996Z,25.38
2023-03-16T00:36:03.972Z,24.08
2023-03-16T00:38:32.537Z,24.08
2023-03-16T00:40:59.685Z,26.10
2023-03-16T00:43:27.328Z,25.27
2023-03-16T00:46:06.982Z,26.13
2023-03-16T00:48:35.091Z,24.85
2023-03-16T00:51:04.308Z,22.88
2023-03-16T00:53:31.465Z,21.08
2023-03-16T00:55:58.565Z,22.05
2023-03-16T00:58:25.659Z,19.35
2023-03-16T01:00:54.785Z,15.90
2023-03-16T01:03:22.045Z,16.15
2023-03-16T01:05:49.260Z,15.13
2023-03-16T01:08:16.445Z,13.57
2023-03-16T01:10:45.286Z,14.32
2023-03-16T01:13:13.181Z,12.40
2023-03-16T01:15:40.404Z,13.23
2023-03-16T01:18:07.589Z,14.07
2023-03-16T01:20:34.743Z,14.23
2023-03-16T01:23:02.530Z,12.93
2023-03-16T01:25:29.649Z,13.10
2023-03-16T01:27:57.077Z,13.98
2023-03-16T01:30:24.365Z,13.18
2023-03-16T01:32:51.616Z,14.20
2023-03-16T01:35:21.382Z,13.32
2023-03-16T01:37:48.809Z,13.30
2023-03-16T01:40:16.068Z,13.60
2023-03-16T01:42:50.492Z,13.48
2023-03-16T01:45:36.125Z,13.90
2023-03-16T01:48:04.361Z,13.40
2023-03-16T01:50:31.625Z,13.27
2023-03-16T01:52:58.729Z,13.30
2023-03-16T01:55:25.875Z,12.57
2023-03-16T01:57:53.734Z,12.60
2023-03-16T02:00:23.805Z,13.90
2023-03-16T02:02:55.706Z,13.18
2023-03-16T02:05:31.677Z,13.90
2023-03-16T02:07:59.307Z,13.85
2023-03-16T02:10:28.525Z,12.80
2023-03-16T02:12:57.986Z,13.20
2023-03-16T02:15:25.418Z,13.18
2023-03-16T02:17:52.646Z,14.48
2023-03-16T02:20:19.810Z,13.40
2023-03-16T02:22:49.487Z,12.57
2023-03-16T02:25:18.836Z,12.77
2023-03-16T02:27:49.004Z,13.45
2023-03-16T02:30:17.364Z,13.02
2023-03-16T02:32:46.204Z,13.90
2023-03-16T02:35:13.446Z,13.95
2023-03-16T02:37:41.850Z,12.57
2023-03-16T02:40:22.341Z,13.18
2023-03-16T02:42:54.685Z,13.25
2023-03-16T02:45:22.774Z,13.65
2023-03-16T02:47:51.873Z,13.90
2023-03-16T02:50:19.032Z,15.23
2023-03-16T02:52:47.962Z,16.98
2023-03-16T02:55:15.686Z,16.45
2023-03-16T02:57:42.842Z,17.10
2023-03-16T03:00:16.942Z,16.67
2023-03-16T03:02:44.748Z,15.75
2023-03-16T03:05:12.883Z,16.30
2023-03-16T03:07:40.152Z,15.82
2023-03-16T03:10:07.512Z,16.38
2023-03-16T03:12:35.240Z,15.98
2023-03-16T03:15:02.520Z,15.85
2023-03-16T03:17:32.581Z,17.90
2023-03-16T03:20:00.659Z,16.10
2023-03-16T03:22:27.766Z,17.38
2023-03-16T03:24:55.007Z,16.30
2023-03-16T03:27:22.571Z,15.75
2023-03-16T03:29:49.819Z,16.65
2023-03-16T03:32:16.987Z,16.63
2023-03-16T03:34:44.109Z,17.27
2023-03-16T03:37:11.241Z,15.82
2023-03-16T03:39:40.485Z,17.20
2023-03-16T03:42:07.784Z,18.67
2023-03-16T03:44:34.969Z,15.73
2023-03-16T03:47:02.270Z,16.00
2023-03-16T03:49:31.579Z,15.57
2023-03-16T03:51:59.287Z,16.50
2023-03-16T03:54:26.482Z,16.73
2023-03-16T03:56:55.787Z,17.10
2023-03-16T03:59:23.373Z,17.48
2023-03-16T04:01:50.578Z,17.30
2023-03-16T04:04:17.698Z,16.15
2023-03-16T04:06:44.819Z,16.38
2023-03-16T04:09:12.166Z,17.25
2023-03-16T04:11:39.692Z,16.85
2023-03-16T04:14:07.768Z,16.80
2023-03-16T04:16:35.290Z,17.33
2023-03-16T04:19:02.463Z,18.02
2023-03-16T04:21:29.657Z,18.70
2023-03-16T04:23:56.756Z,18.08
2023-03-16T04:26:25.744Z,17.60
2023-03-16T04:28:52.881Z,18.38
2023-03-16T04:31:20.057Z,18.67
2023-03-16T04:33:47.400Z,18.40
2023-03-16T04:36:15.832Z,16.95
2023-03-16T04:38:45.443Z,17.60
2023-03-16T04:41:12.632Z,16.95
2023-03-16T04:43:39.854Z,19.55
2023-03-16T04:46:07.456Z,19.42
2023-03-16T04:48:34.734Z,19.70
2023-03-16T04:51:04.173Z,18.65
2023-03-16T04:53:32.011Z,19.35
2023-03-16T04:55:59.842Z,18.15
2023-03-16T04:58:27.297Z,19.90
2023-03-16T05:00:55.513Z,18.60
2023-03-16T05:03:22.973Z,17.55
2023-03-16T05:05:51.332Z,17.05
2023-03-16T05:08:18.719Z,18.70
2023-03-16T05:10:48.183Z,19.83
2023-03-16T05:13:15.558Z,18.63
2023-03-16T05:15:42.886Z,17.42
2023-03-16T05:18:10.233Z,19.52
2023-03-16T05:20:39.810Z,19.52
2023-03-16T05:23:09.486Z,20.13
2023-03-16T05:26:14.189Z,19.80
2023-03-16T05:34:25.926Z,20.02
2023-03-16T05:40:03.593Z,19.85
2023-03-16T05:43:13.312Z,19.00
2023-03-16T05:45:44.401Z,18.98
2023-03-16T05:50:59.126Z,19.40
2023-03-16T05:53:29.055Z,19.30
2023-03-16T05:55:58.518Z,19.10
2023-03-16T05:58:26.502Z,19.73
2023-03-16T06:01:11.292Z,18.63
2023-03-16T06:03:57.468Z,18.75
2023-03-16T06:06:24.820Z,19.00
2023-03-16T06:08:52.651Z,19.17
2023-03-16T06:11:20.037Z,18.55
2023-03-16T06:13:47.694Z,18.55
2023-03-16T06:16:17.228Z,17.48
2023-03-16T06:18:45.145Z,20.23
2023-03-16T06:21:12.310Z,17.63
2023-03-16T06:23:39.802Z,18.10
2023-03-16T06:26:07.027Z,19.27
2023-03-16T06:28:34.233Z,17.90
2023-03-16T06:31:01.416Z,18.42
2023-03-16T06:33:28.633Z,19.35
2023-03-16T06:35:55.782Z,18.58
2023-03-16T06:38:22.900Z,19.63
2023-03-16T06:40:55.281Z,19.75
2023-03-16T06:43:22.447Z,19.65
2023-03-16T06:45:49.600Z,21.17
2023-03-16T06:48:16.809Z,21.35
2023-03-16T06:50:46.058Z,21.00
2023-03-16T06:53:13.378Z,21.85
2023-03-16T06:55:41.564Z,20.27
2023-03-16T06:58:09.033Z,20.67
2023-03-16T07:00:36.388Z,21.02
2023-03-16T07:03:03.733Z,21.50
2023-03-16T07:05:31.567Z,20.67
2023-03-16T07:07:58.724Z,21.95
2023-03-16T07:10:25.862Z,20.17
2023-03-16T07:12:54.126Z,21.48
2023-03-16T07:15:21.797Z,17.65
2023-03-16T07:17:52.491Z,19.27
2023-03-16T07:22:52.469Z,21.83
2023-03-16T07:25:19.677Z,20.25
2023-03-16T07:27:47.563Z,21.33
2023-03-16T07:30:14.906Z,18.15
2023-03-16T07:32:42.690Z,18.27
2023-03-16T07:35:11.640Z,17.92
2023-03-16T07:37:38.977Z,18.00
2023-03-16T07:40:09.340Z,19.85
2023-03-16T07:42:37.319Z,19.90
2023-03-16T07:45:06.720Z,17.63
2023-03-16T07:47:34.605Z,19.50
2023-03-16T07:50:01.870Z,19.23
2023-03-16T07:52:29.049Z,18.08
2023-03-16T07:54:56.386Z,18.27
2023-03-16T07:57:23.550Z,18.08
2023-03-16T07:59:50.735Z,18.27
2023-03-16T08:02:19.458Z,17.42
2023-03-16T08:04:47.318Z,17.27
2023-03-16T08:07:14.903Z,15.07
2023-03-16T08:09:42.186Z,16.25
2023-03-16T08:12:10.165Z,17.58
2023-03-16T08:14:37.612Z,14.60
2023-03-16T08:17:05.997Z,15.38
2023-03-16T08:19:33.644Z,13.27
2023-03-16T08:22:03.737Z,15.63
2023-03-16T08:24:31.111Z,15.77
2023-03-16T08:26:58.406Z,12.05
2023-03-16T08:29:29.085Z,10.88
2023-03-16T08:34:37.587Z,10.38
2023-03-16T08:37:12.407Z,9.25
2023-03-16T08:39:42.081Z,8.88
2023-03-16T08:42:23.643Z,8.50
2023-03-16T08:45:00.983Z,7.60
2023-03-16T08:47:52.193Z,6.72
2023-03-16T08:50:19.772Z,8.10
2023-03-16T08:52:58.329Z,8.68
2023-03-16T08:55:28.181Z,8.35
2023-03-16T08:57:59.760Z,7.38
2023-03-16T09:00:29.444Z,8.70
2023-03-16T09:03:17.883Z,7.67
2023-03-16T09:05:45.449Z,7.65
2023-03-16T09:08:14.219Z,8.32
2023-03-16T09:10:42.539Z,7.45
2023-03-16T09:13:10.095Z,7.47
2023-03-16T09:15:39.229Z,7.40
2023-03-16T09:18:06.651Z,7.78
2023-03-16T09:20:34.950Z,7.35
2023-03-16T09:23:03.753Z,8.95
2023-03-16T09:25:32.508Z,7.85
2023-03-16T09:28:01.126Z,8.32
2023-03-16T09:30:32.333Z,5.75
2023-03-16T09:33:00.175Z,4.18
2023-03-16T09:35:27.541Z,4.45
2023-03-16T09:38:05.570Z,5.88
2023-03-16T09:40:33.989Z,6.43
2023-03-16T09:43:20.060Z,6.15
2023-03-16T09:45:53.687Z,6.75
2023-03-16T09:48:21.340Z,6.47
2023-03-16T09:50:50.805Z,5.32
2023-03-16T09:53:25.176Z,4.07
2023-03-16T09:56:14.222Z,5.22
2023-03-16T09:58:41.513Z,4.57
2023-03-16T10:01:15.078Z,4.63
2023-03-16T10:03:51.439Z,5.20
2023-03-16T10:06:19.821Z,4.68
2023-03-16T10:08:53.508Z,4.35
2023-03-16T10:11:23.792Z,4.82
2023-03-16T10:13:51.179Z,4.00
2023-03-16T10:16:24.024Z,3.90
2023-03-16T10:18:54.390Z,4.13
2023-03-16T10:21:21.762Z,4.63
2023-03-16T10:23:49.782Z,4.80
2023-03-16T10:26:21.463Z,4.47
2023-03-16T10:28:48.665Z,4.80
2023-03-16T10:31:17.608Z,5.53
2023-03-16T10:33:45.676Z,4.40
2023-03-16T10:36:15.910Z,4.82
2023-03-16T10:38:49.417Z,4.95
2023-03-16T10:41:22.886Z,4.35
2023-03-16T10:44:12.410Z,5.47
2023-03-16T10:46:51.614Z,5.18
2023-03-16T10:49:28.995Z,4.22
2023-03-16T10:51:59.671Z,5.63
2023-03-16T10:54:26.903Z,5.40
2023-03-16T10:56:54.095Z,5.65
2023-03-16T10:59:29.819Z,5.60
2023-03-16T11:01:58.356Z,4.25
2023-03-16T11:04:25.991Z,4.80
2023-03-16T11:06:55.496Z,3.50
2023-03-16T11:09:33.684Z,4.20
2023-03-16T11:12:48.879Z,4.10
2023-03-16T11:30:25.709Z,3.40
2023-03-16T11:33:11.215Z,4.55
2023-03-16T11:39:25.325Z,3.83
2023-03-16T11:45:22.251Z,3.90
2023-03-16T11:48:24.263Z,3.72
2023-03-16T11:51:37.828Z,3.65
2023-03-16T11:54:45.895Z,4.35
2023-03-16T11:58:02.141Z,4.53
2023-03-16T12:01:36.192Z,4.03
2023-03-16T12:07:32.270Z,3.92
2023-03-16T12:10:02.245Z,4.95
2023-03-16T12:12:47.949Z,4.57
2023-03-16T12:15:24.497Z,4.47
2023-03-16T12:17:54.258Z,3.72
2023-03-16T12:20:27.439Z,3.92
2023-03-16T12:22:59.975Z,3.63
2023-03-16T12:25:31.108Z,5.63
2023-03-16T12:28:01.348Z,4.07
2023-03-16T12:30:48.018Z,3.92
2023-03-16T12:33:19.433Z,3.42
2023-03-16T12:35:58.848Z,3.90
2023-03-16T12:38:41.302Z,3.60
2023-03-16T12:41:17.980Z,4.20
2023-03-16T12:43:51.178Z,3.80
2023-03-16T12:46:24.693Z,4.28
2023-03-16T12:48:55.446Z,3.95
2023-03-16T12:51:33.013Z,3.53
2023-03-16T12:54:00.764Z,3.45
2023-03-16T12:56:32.157Z,4.30
2023-03-16T12:59:01.421Z,4.03
2023-03-16T13:01:31.533Z,3.65
2023-03-16T13:04:07.228Z,4.22
2023-03-16T13:06:36.542Z,3.28
2023-03-16T13:09:05.623Z,3.45
2023-03-16T13:12:05.311Z,4.05
2023-03-16T13:14:45.082Z,3.17
2023-03-16T13:17:25.491Z,3.67
2023-03-16T13:20:04.337Z,4.72
2023-03-16T13:22:34.271Z,3.83
2023-03-16T13:25:01.653Z,3.72
2023-03-16T13:27:30.797Z,5.05
2023-03-16T13:30:08.299Z,3.33
2023-03-16T13:32:36.026Z,3.22
2023-03-16T13:35:06.669Z,4.78
2023-03-16T13:37:33.890Z,4.32
2023-03-16T13:40:02.168Z,3.22
2023-03-16T13:42:33.962Z,4.95
2023-03-16T13:45:10.930Z,3.50
2023-03-16T13:47:38.079Z,3.38
2023-03-16T13:50:06.144Z,4.32
2023-03-16T13:52:34.614Z,4.03
2023-03-16T13:55:03.475Z,4.80
2023-03-16T13:57:33.375Z,3.60
2023-03-16T14:00:25.067Z,3.28
2023-03-16T14:02:54.063Z,12.32
2023-03-16T14:05:24.479Z,21.48
2023-03-16T14:07:53.297Z,21.30
2023-03-16T14:10:21.315Z,15.57
2023-03-16T14:12:55.567Z,3.83
2023-03-16T14:15:24.222Z,3.53
2023-03-16T14:17:52.121Z,12.40
2023-03-16T14:20:20.637Z,16.15
2023-03-16T14:22:48.187Z,6.00
2023-03-16T14:25:22.614Z,3.95
2023-03-16T14:27:57.756Z,5.00
2023-03-16T14:30:27.691Z,5.85
2023-03-16T14:33:02.845Z,2.72
2023-03-16T14:35:32.450Z,4.70
2023-03-16T14:38:19.316Z,4.07
2023-03-16T14:40:57.668Z,3.63
2023-03-16T14:50:46.899Z,4.43
2023-03-16T14:59:38.776Z,3.17
2023-03-16T15:09:47.671Z,3.83
2023-03-16T15:12:19.770Z,5.25
2023-03-16T15:15:10.497Z,4.60
2023-03-16T15:17:37.653Z,4.72
2023-03-16T15:20:05.334Z,4.50
2023-03-16T15:22:34.287Z,7.35
2023-03-16T15:25:03.608Z,4.45
2023-03-16T15:27:35.667Z,5.82
2023-03-16T15:30:02.884Z,4.60
2023-03-16T15:32:32.551Z,3.75
2023-03-16T15:34:59.773Z,3.80
2023-03-16T15:37:27.960Z,3.67
2023-03-16T15:39:55.282Z,4.82
2023-03-16T15:42:22.882Z,5.63
2023-03-16T15:44:51.584Z,5.63
2023-03-16T15:47:18.844Z,6.30
2023-03-16T15:49:48.201Z,9.90
2023-03-16T15:52:22.966Z,7.63
2023-03-16T15:54:51.882Z,10.43
2023-03-16T15:57:19.248Z,7.90
2023-03-16T15:59:47.584Z,7.97
2023-03-16T16:02:41.044Z,4.18
2023-03-16T16:05:10.204Z,5.03
2023-03-16T16:07:37.305Z,12.93
2023-03-16T16:10:06.881Z,9.23
2023-03-16T16:12:34.329Z,6.83
2023-03-16T16:15:02.735Z,4.15
2023-03-16T16:17:48.073Z,4.57
2023-03-16T16:20:21.660Z,8.88
2023-03-16T16:22:49.453Z,7.68
2023-03-16T16:25:16.795Z,4.93
2023-03-16T16:27:46.081Z,4.82
2023-03-16T16:30:32.546Z,4.35
2023-03-16T16:32:59.925Z,5.18
2023-03-16T16:35:29.095Z,5.78
2023-03-16T16:37:58.853Z,5.75
2023-03-16T16:40:33.030Z,6.00
2023-03-16T16:43:06.392Z,5.78
2023-03-16T16:45:33.805Z,5.85
2023-03-16T16:48:00.953Z,6.65
2023-03-16T16:50:29.902Z,6.85
2023-03-16T16:52:58.154Z,7.07
2023-03-16T16:55:25.398Z,7.32
2023-03-16T16:57:54.865Z,41.13
2023-03-16T17:00:23.729Z,16.40
2023-03-16T17:02:57.903Z,19.40
2023-03-16T17:05:26.902Z,17.77
2023-03-16T17:07:54.677Z,9.88
2023-03-16T17:10:27.610Z,7.53
2023-03-16T17:12:56.865Z,7.68
2023-03-16T17:15:26.215Z,6.97
2023-03-16T17:17:56.842Z,7.07
2023-03-16T17:22:54.713Z,7.80
2023-03-16T17:25:23.220Z,8.63
2023-03-16T17:27:51.996Z,9.25
2023-03-16T17:30:29.795Z,10.57
2023-03-16T17:33:03.423Z,12.75
2023-03-16T17:35:31.290Z,15.95
2023-03-16T17:37:58.690Z,34.75
2023-03-16T17:40:26.983Z,20.63
2023-03-16T17:42:58.444Z,19.20
2023-03-16T17:45:28.917Z,18.73
2023-03-16T17:50:25.186Z,20.17
2023-03-16T17:52:53.174Z,20.27
2023-03-16T17:55:24.576Z,21.30
2023-03-16T17:57:53.816Z,23.90
2023-03-16T18:00:29.003Z,25.45
2023-03-16T18:02:59.350Z,26.27
2023-03-16T18:05:29.257Z,26.65
2023-03-16T18:07:59.223Z,27.55
2023-03-16T18:10:28.472Z,28.60
2023-03-16T18:13:00.211Z,32.97
2023-03-16T18:15:29.343Z,31.30
2023-03-16T18:17:56.983Z,32.17
2023-03-16T18:20:30.872Z,35.08
2023-03-16T18:22:59.466Z,34.75
2023-03-16T18:25:39.115Z,35.38
2023-03-16T18:28:07.764Z,37.63
2023-03-16T18:30:35.672Z,39.42
2023-03-16T18:33:04.154Z,44.63
2023-03-16T18:35:32.203Z,48.88
2023-03-16T18:37:59.621Z,45.30
2023-03-16T18:40:27.318Z,43.58
2023-03-16T18:42:55.091Z,43.42
2023-03-16T18:45:23.341Z,43.15
2023-03-16T18:47:54.214Z,42.85
2023-03-16T18:50:23.378Z,41.08
2023-03-16T18:52:50.819Z,39.13
2023-03-16T18:55:19.504Z,37.63
2023-03-16T18:57:50.445Z,34.92
2023-03-16T19:00:19.311Z,38.38
2023-03-16T19:02:47.495Z,39.30
2023-03-16T19:05:18.812Z,38.67
2023-03-16T19:07:47.373Z,39.17
2023-03-16T19:10:28.504Z,37.25
2023-03-16T19:12:56.235Z,36.65
2023-03-16T19:15:28.529Z,38.05
2023-03-16T19:17:56.017Z,37.35
2023-03-16T19:20:25.225Z,36.38
2023-03-16T19:22:57.024Z,35.45
2023-03-16T19:25:32.082Z,40.00
2023-03-16T19:28:00.095Z,42.50
2023-03-16T19:30:29.191Z,52.90
2023-03-16T19:32:57.228Z,39.75
2023-03-16T19:35:36.313Z,45.35
2023-03-16T19:38:12.690Z,48.75
2023-03-16T19:40:42.310Z,55.25
2023-03-16T19:43:17.648Z,61.15
2023-03-16T19:45:45.665Z,61.38
2023-03-16T19:48:20.352Z,77.75
2023-03-16T19:50:51.283Z,79.30
2023-03-16T19:53:19.836Z,73.60
2023-03-16T19:55:48.380Z,74.13
2023-03-16T19:58:19.330Z,71.40
2023-03-16T20:00:47.384Z,77.55
2023-03-16T20:03:16.015Z,86.80
2023-03-16T20:05:43.598Z,91.68
2023-03-16T20:08:31.322Z,81.38
2023-03-16T20:11:02.164Z,88.00
2023-03-16T20:13:31.422Z,82.38
2023-03-16T20:15:58.584Z,81.97
2023-03-16T20:18:25.975Z,84.30
2023-03-16T20:20:53.173Z,86.22
2023-03-16T20:23:23.034Z,86.03
2023-03-16T20:25:51.281Z,74.30
2023-03-16T20:28:25.944Z,73.63
2023-03-16T20:30:53.756Z,65.28
2023-03-16T20:33:24.047Z,67.15
2023-03-16T20:35:55.796Z,62.38
2023-03-16T20:38:23.312Z,59.95
2023-03-16T20:40:57.227Z,60.10
2023-03-16T20:43:29.098Z,56.53
2023-03-16T20:45:57.535Z,52.97
2023-03-16T20:48:25.615Z,56.80
2023-03-16T20:50:55.060Z,56.50
2023-03-16T20:55:51.861Z,55.28
2023-03-16T20:58:24.789Z,56.67
2023-03-16T21:00:53.312Z,58.35
2023-03-16T21:03:22.373Z,60.95
2023-03-16T21:36:16.733Z,95.18
2023-03-16T21:38:44.667Z,96.50
2023-03-16T21:41:12.063Z,88.47
2023-03-16T21:43:43.084Z,86.97
2023-03-16T21:46:18.652Z,82.28
2023-03-16T21:48:47.287Z,81.82
2023-03-16T21:51:15.621Z,83.82
2023-03-16T21:53:43.494Z,77.95
2023-03-16T21:56:18.233Z,85.00
2023-03-16T21:58:45.870Z,88.95
2023-03-16T22:01:20.555Z,83.63
2023-03-16T22:03:51.349Z,83.10
2023-03-16T22:06:18.642Z,81.75
2023-03-16T22:08:46.060Z,81.57
2023-03-16T22:11:18.116Z,81.47
2023-03-16T22:13:45.349Z,79.25
2023-03-16T22:16:22.149Z,76.95
2023-03-16T22:18:52.457Z,87.70
2023-03-16T22:21:28.214Z,91.15
2023-03-16T22:23:56.076Z,93.10
2023-03-16T22:26:23.520Z,94.75
2023-03-16T22:28:50.897Z,95.10
2023-03-16T22:31:20.870Z,91.80
2023-03-16T22:33:54.460Z,95.65
2023-03-16T22:36:22.797Z,89.18
2023-03-16T22:39:12.310Z,90.32
2023-03-16T22:41:39.503Z,89.68
2023-03-16T22:44:07.970Z,94.55
2023-03-16T22:46:35.165Z,101.82
2023-03-16T22:49:02.375Z,97.88
2023-03-16T22:51:34.091Z,98.97
2023-03-16T22:54:03.750Z,92.40
2023-03-16T22:56:32.164Z,90.82
2023-03-16T22:59:00.920Z,91.63
2023-03-16T23:01:43.323Z,80.65
2023-03-16T23:04:20.041Z,81.55
2023-03-16T23:06:51.598Z,69.65
2023-03-16T23:09:20.574Z,63.83
2023-03-16T23:11:48.794Z,57.90
2023-03-16T23:14:17.641Z,58.20
2023-03-16T23:16:45.770Z,67.88
2023-03-16T23:19:25.900Z,61.55
2023-03-16T23:21:57.565Z,58.42
2023-03-16T23:24:26.771Z,58.55
2023-03-16T23:26:54.808Z,63.90
2023-03-16T23:29:22.869Z,60.38
2023-03-16T23:31:51.449Z,61.00
2023-03-16T23:34:19.728Z,60.88
2023-03-16T23:36:47.175Z,60.92
2023-03-16T23:39:14.373Z,66.38
2023-03-16T23:41:43.344Z,63.72
2023-03-16T23:44:15.941Z,63.95
2023-03-16T23:46:43.323Z,66.90
2023-03-16T23:49:17.019Z,67.15
2023-03-16T23:51:44.196Z,68.10
2023-03-16T23:54:18.114Z,67.15
2023-03-16T23:56:45.331Z,67.00
2023-03-16T23:59:12.457Z,65.90
